CYMJ

Moose Jaw Air Vice Marshal C. M. McEwen Airport

Moose Jaw, Saskatchewan, Canada
TAF CYMJ 202330Z 2100/2112 13015KT P6SM FEW050 BECMG 2104/2106 13010KT RMK NXT FCST BY 210600Z
Issued Valid From Valid To
Jul-20 @ 23:30 UTC
(12 hours ago)
Jul-21 @ 00:00 UTC
(11 hours ago)
Jul-21 @ 12:00 UTC
(in 57 minutes)
Expired Click to View Jul-21 @ 00:00 to Jul-21 @ 04:00
TAF CYMJ 202330Z 2100/2112 13015KT P6SM FEW050
Wind Visibility Clouds
130° at 15 knots Greater than 6 miles
  • Few at 5,000' AGL
Becoming Jul-21 @ 04:00 to Jul-21 @ 12:00
BECMG 2104/2106 13010KT RMK NXT FCST BY 210600Z
Wind Visibility Clouds
130° at 10 knots Greater than 6 miles
  • Few at 5,000' AGL
TAF CYMJ 202330Z 2100/2112 13015KT P6SM FEW050 BECMG 2104/2106 13010KT RMK NXT FCST BY 210600Z
Issued Jul-20 @ 23:30 UTC
(12 hours ago)
Valid From Jul-21 @ 00:00 UTC
(11 hours ago)
Valid To Jul-21 @ 12:00 UTC
(in 57 minutes)
Jul-21 @ 00:00 - Jul-21 @ 04:00
Wind Visibility
130° at 15 knots Greater than 6 miles
Clouds
  • Few at 5,000' AGL
Becoming Jul-21 @ 04:00 - Jul-21 @ 12:00
Wind Visibility
130° at 10 knots Greater than 6 miles
Clouds
  • Few at 5,000' AGL